sensor_id;sensor_type;location;lat;lon;timestamp;pressure;altitude;pressure_sealevel;temperature;humidity
59063;BME280;44851;45.648;9.004;2022-11-21T00:01:53;98422.25;;;5.45;61.71
59063;BME280;44851;45.648;9.004;2022-11-21T00:04:18;98419.41;;;5.36;62.12
59063;BME280;44851;45.648;9.004;2022-11-21T00:06:43;98417.88;;;5.45;60.97
59063;BME280;44851;45.648;9.004;2022-11-21T00:09:09;98422.59;;;5.40;61.68
59063;BME280;44851;45.648;9.004;2022-11-21T00:11:34;98431.50;;;5.47;61.98
59063;BME280;44851;45.648;9.004;2022-11-21T00:13:59;98441.72;;;5.60;61.43
59063;BME280;44851;45.648;9.004;2022-11-21T00:16:25;98436.63;;;5.58;61.50
59063;BME280;44851;45.648;9.004;2022-11-21T00:18:50;98443.44;;;5.59;60.86
59063;BME280;44851;45.648;9.004;2022-11-21T00:21:17;98447.72;;;5.49;61.60
59063;BME280;44851;45.648;9.004;2022-11-21T00:23:43;98442.56;;;5.49;61.56
59063;BME280;44851;45.648;9.004;2022-11-21T00:26:10;98446.41;;;5.55;61.11
59063;BME280;44851;45.648;9.004;2022-11-21T00:28:36;98440.66;;;5.51;60.79
59063;BME280;44851;45.648;9.004;2022-11-21T00:31:03;98446.91;;;5.37;60.82
59063;BME280;44851;45.648;9.004;2022-11-21T00:33:29;98452.91;;;5.27;60.74
59063;BME280;44851;45.648;9.004;2022-11-21T00:35:54;98441.63;;;5.17;61.13
59063;BME280;44851;45.648;9.004;2022-11-21T00:38:20;98447.75;;;5.27;61.21
59063;BME280;44851;45.648;9.004;2022-11-21T00:40:45;98449.84;;;5.22;60.82
59063;BME280;44851;45.648;9.004;2022-11-21T00:43:10;98445.66;;;5.09;61.19
59063;BME280;44851;45.648;9.004;2022-11-21T00:45:36;98436.13;;;5.10;61.84
59063;BME280;44851;45.648;9.004;2022-11-21T00:48:02;98443.19;;;5.08;61.88
59063;BME280;44851;45.648;9.004;2022-11-21T00:50:27;98434.28;;;5.12;61.48
59063;BME280;44851;45.648;9.004;2022-11-21T00:52:57;98439.53;;;5.22;60.98
59063;BME280;44851;45.648;9.004;2022-11-21T00:55:25;98438.13;;;5.18;60.88
59063;BME280;44851;45.648;9.004;2022-11-21T00:57:50;98428.72;;;5.17;61.06
59063;BME280;44851;45.648;9.004;2022-11-21T01:00:16;98438.38;;;5.15;60.70
59063;BME280;44851;45.648;9.004;2022-11-21T01:02:42;98439.53;;;4.99;61.45
59063;BME280;44851;45.648;9.004;2022-11-21T01:05:08;98436.84;;;4.78;61.53
59063;BME280;44851;45.648;9.004;2022-11-21T01:07:34;98438.13;;;4.95;61.40
59063;BME280;44851;45.648;9.004;2022-11-21T01:09:59;98431.31;;;4.94;61.21
59063;BME280;44851;45.648;9.004;2022-11-21T01:12:24;98439.69;;;4.87;61.76
59063;BME280;44851;45.648;9.004;2022-11-21T01:14:50;98434.38;;;4.77;62.11
59063;BME280;44851;45.648;9.004;2022-11-21T01:17:15;98431.94;;;4.87;61.87
59063;BME280;44851;45.648;9.004;2022-11-21T01:19:41;98439.75;;;4.74;62.10
59063;BME280;44851;45.648;9.004;2022-11-21T01:22:06;98440.03;;;4.82;61.90
59063;BME280;44851;45.648;9.004;2022-11-21T01:24:31;98432.84;;;4.63;61.89
59063;BME280;44851;45.648;9.004;2022-11-21T01:26:57;98436.03;;;4.78;61.89
59063;BME280;44851;45.648;9.004;2022-11-21T01:29:22;98425.34;;;4.71;61.85
59063;BME280;44851;45.648;9.004;2022-11-21T01:31:48;98426.16;;;4.72;62.19
59063;BME280;44851;45.648;9.004;2022-11-21T01:34:14;98431.81;;;4.88;61.62
59063;BME280;44851;45.648;9.004;2022-11-21T01:36:39;98426.16;;;4.72;60.97
59063;BME280;44851;45.648;9.004;2022-11-21T01:39:06;98421.69;;;4.63;61.63
59063;BME280;44851;45.648;9.004;2022-11-21T01:41:39;98420.31;;;4.70;61.90
59063;BME280;44851;45.648;9.004;2022-11-21T01:44:18;98428.06;;;4.81;60.79
59063;BME280;44851;45.648;9.004;2022-11-21T01:46:44;98426.16;;;4.83;61.30
59063;BME280;44851;45.648;9.004;2022-11-21T01:51:54;98419.38;;;4.82;60.90
59063;BME280;44851;45.648;9.004;2022-11-21T01:54:27;98413.25;;;4.83;61.25
59063;BME280;44851;45.648;9.004;2022-11-21T01:57:04;98418.41;;;4.72;59.86
59063;BME280;44851;45.648;9.004;2022-11-21T01:59:39;98416.06;;;4.69;60.77
59063;BME280;44851;45.648;9.004;2022-11-21T02:02:09;98404.91;;;4.46;61.83
59063;BME280;44851;45.648;9.004;2022-11-21T02:04:36;98409.72;;;4.39;61.31
59063;BME280;44851;45.648;9.004;2022-11-21T02:07:05;98405.00;;;4.33;60.76
59063;BME280;44851;45.648;9.004;2022-11-21T02:09:32;98394.19;;;4.17;61.29
59063;BME280;44851;45.648;9.004;2022-11-21T02:12:01;98398.38;;;4.06;61.40
59063;BME280;44851;45.648;9.004;2022-11-21T02:14:30;98395.81;;;4.06;61.92
59063;BME280;44851;45.648;9.004;2022-11-21T02:16:57;98393.81;;;4.10;62.04
59063;BME280;44851;45.648;9.004;2022-11-21T02:25:02;98391.84;;;4.25;60.66
59063;BME280;44851;45.648;9.004;2022-11-21T02:27:28;98388.31;;;4.15;61.96
59063;BME280;44851;45.648;9.004;2022-11-21T02:29:53;98395.59;;;4.21;61.96
59063;BME280;44851;45.648;9.004;2022-11-21T02:32:24;98402.13;;;4.02;62.02
59063;BME280;44851;45.648;9.004;2022-11-21T02:34:50;98394.84;;;3.96;62.74
59063;BME280;44851;45.648;9.004;2022-11-21T02:37:16;98398.59;;;4.03;63.29
59063;BME280;44851;45.648;9.004;2022-11-21T02:39:42;98398.31;;;4.30;62.77
59063;BME280;44851;45.648;9.004;2022-11-21T02:44:45;98391.84;;;4.25;62.38
59063;BME280;44851;45.648;9.004;2022-11-21T02:47:13;98380.34;;;4.06;63.09
59063;BME280;44851;45.648;9.004;2022-11-21T02:49:49;98391.56;;;3.70;62.56
59063;BME280;44851;45.648;9.004;2022-11-21T02:52:18;98381.88;;;3.74;63.88
59063;BME280;44851;45.648;9.004;2022-11-21T02:54:43;98375.06;;;3.73;63.98
59063;BME280;44851;45.648;9.004;2022-11-21T02:57:08;98375.47;;;3.91;62.41
59063;BME280;44851;45.648;9.004;2022-11-21T02:59:33;98375.38;;;3.92;63.16
59063;BME280;44851;45.648;9.004;2022-11-21T03:01:59;98367.91;;;4.00;62.81
59063;BME280;44851;45.648;9.004;2022-11-21T03:04:25;98361.69;;;4.03;62.25
59063;BME280;44851;45.648;9.004;2022-11-21T03:06:51;98357.44;;;3.91;62.66
59063;BME280;44851;45.648;9.004;2022-11-21T03:09:16;98355.69;;;3.67;63.10
59063;BME280;44851;45.648;9.004;2022-11-21T03:11:42;98364.31;;;3.79;63.22
59063;BME280;44851;45.648;9.004;2022-11-21T03:14:07;98372.09;;;3.90;62.40
59063;BME280;44851;45.648;9.004;2022-11-21T03:16:32;98372.75;;;3.81;62.54
59063;BME280;44851;45.648;9.004;2022-11-21T03:18:58;98369.25;;;3.93;63.04
59063;BME280;44851;45.648;9.004;2022-11-21T03:21:23;98375.16;;;3.95;62.37
59063;BME280;44851;45.648;9.004;2022-11-21T03:23:49;98367.63;;;3.92;62.74
59063;BME280;44851;45.648;9.004;2022-11-21T03:26:14;98370.06;;;3.83;61.97
59063;BME280;44851;45.648;9.004;2022-11-21T03:28:40;98360.53;;;3.72;62.89
59063;BME280;44851;45.648;9.004;2022-11-21T03:31:06;98366.63;;;3.71;62.82
59063;BME280;44851;45.648;9.004;2022-11-21T03:33:31;98376.69;;;3.63;63.39
59063;BME280;44851;45.648;9.004;2022-11-21T03:35:57;98376.94;;;3.71;63.31
59063;BME280;44851;45.648;9.004;2022-11-21T03:38:22;98393.59;;;3.78;63.14
59063;BME280;44851;45.648;9.004;2022-11-21T03:40:47;98392.47;;;3.93;62.85
59063;BME280;44851;45.648;9.004;2022-11-21T03:43:13;98390.50;;;3.73;63.47
59063;BME280;44851;45.648;9.004;2022-11-21T03:45:38;98385.78;;;3.91;62.67
59063;BME280;44851;45.648;9.004;2022-11-21T03:48:04;98380.53;;;3.92;62.64
59063;BME280;44851;45.648;9.004;2022-11-21T03:50:29;98377.81;;;3.94;62.11
59063;BME280;44851;45.648;9.004;2022-11-21T03:52:54;98365.44;;;3.64;62.40
59063;BME280;44851;45.648;9.004;2022-11-21T03:55:20;98365.69;;;3.72;62.82
59063;BME280;44851;45.648;9.004;2022-11-21T03:57:45;98368.50;;;3.69;62.82
59063;BME280;44851;45.648;9.004;2022-11-21T04:00:12;98353.25;;;3.66;62.95
59063;BME280;44851;45.648;9.004;2022-11-21T04:02:37;98353.69;;;3.60;63.27
59063;BME280;44851;45.648;9.004;2022-11-21T04:05:03;98356.28;;;3.60;63.25
59063;BME280;44851;45.648;9.004;2022-11-21T04:07:28;98352.75;;;3.61;62.98
59063;BME280;44851;45.648;9.004;2022-11-21T04:09:54;98350.19;;;3.61;62.45
59063;BME280;44851;45.648;9.004;2022-11-21T04:12:19;98337.75;;;3.54;63.36
59063;BME280;44851;45.648;9.004;2022-11-21T04:14:44;98338.53;;;3.44;62.61
59063;BME280;44851;45.648;9.004;2022-11-21T04:17:10;98339.59;;;3.41;63.36
59063;BME280;44851;45.648;9.004;2022-11-21T04:19:35;98341.22;;;3.42;62.79
59063;BME280;44851;45.648;9.004;2022-11-21T04:22:00;98345.19;;;3.46;62.74
59063;BME280;44851;45.648;9.004;2022-11-21T04:24:26;98353.88;;;3.45;62.70
59063;BME280;44851;45.648;9.004;2022-11-21T04:26:53;98358.50;;;3.40;63.39
59063;BME280;44851;45.648;9.004;2022-11-21T04:29:18;98352.84;;;3.48;63.28
59063;BME280;44851;45.648;9.004;2022-11-21T04:31:43;98345.59;;;3.53;63.48
59063;BME280;44851;45.648;9.004;2022-11-21T04:34:09;98337.25;;;3.49;63.30
59063;BME280;44851;45.648;9.004;2022-11-21T04:36:34;98336.69;;;3.33;63.38
59063;BME280;44851;45.648;9.004;2022-11-21T04:39:00;98333.06;;;3.36;63.17
59063;BME280;44851;45.648;9.004;2022-11-21T04:41:25;98335.13;;;3.43;63.48
59063;BME280;44851;45.648;9.004;2022-11-21T04:43:50;98327.56;;;3.40;63.08
59063;BME280;44851;45.648;9.004;2022-11-21T04:46:16;98321.56;;;3.41;62.33
59063;BME280;44851;45.648;9.004;2022-11-21T04:48:41;98321.72;;;3.38;62.58
59063;BME280;44851;45.648;9.004;2022-11-21T04:51:06;98317.09;;;3.43;62.53
59063;BME280;44851;45.648;9.004;2022-11-21T04:53:32;98316.66;;;3.25;63.51
59063;BME280;44851;45.648;9.004;2022-11-21T04:55:57;98318.81;;;3.19;63.33
59063;BME280;44851;45.648;9.004;2022-11-21T04:58:24;98310.59;;;3.14;63.73
59063;BME280;44851;45.648;9.004;2022-11-21T05:00:49;98304.31;;;3.18;64.20
59063;BME280;44851;45.648;9.004;2022-11-21T05:03:14;98303.66;;;3.27;63.21
59063;BME280;44851;45.648;9.004;2022-11-21T05:05:40;98308.25;;;3.35;63.56
59063;BME280;44851;45.648;9.004;2022-11-21T05:08:05;98309.78;;;3.37;63.32
59063;BME280;44851;45.648;9.004;2022-11-21T05:10:31;98306.72;;;3.32;63.44
59063;BME280;44851;45.648;9.004;2022-11-21T05:13:16;98299.00;;;3.32;63.14
59063;BME280;44851;45.648;9.004;2022-11-21T05:15:47;98294.63;;;3.45;63.49
59063;BME280;44851;45.648;9.004;2022-11-21T05:18:19;98292.75;;;3.47;63.44
59063;BME280;44851;45.648;9.004;2022-11-21T05:20:44;98299.84;;;3.20;64.33
59063;BME280;44851;45.648;9.004;2022-11-21T05:23:09;98297.72;;;3.14;63.42
59063;BME280;44851;45.648;9.004;2022-11-21T05:25:35;98304.09;;;3.21;63.99
59063;BME280;44851;45.648;9.004;2022-11-21T05:28:00;98298.91;;;3.10;63.68
59063;BME280;44851;45.648;9.004;2022-11-21T05:30:25;98294.50;;;3.23;63.74
59063;BME280;44851;45.648;9.004;2022-11-21T05:32:51;98299.75;;;2.97;63.96
59063;BME280;44851;45.648;9.004;2022-11-21T05:35:16;98301.13;;;3.14;63.98
59063;BME280;44851;45.648;9.004;2022-11-21T05:37:42;98310.22;;;3.31;63.05
59063;BME280;44851;45.648;9.004;2022-11-21T05:40:07;98309.00;;;3.24;62.80
59063;BME280;44851;45.648;9.004;2022-11-21T05:42:33;98317.88;;;3.20;62.49
59063;BME280;44851;45.648;9.004;2022-11-21T05:45:17;98321.34;;;3.08;62.71
59063;BME280;44851;45.648;9.004;2022-11-21T05:47:42;98317.28;;;2.92;63.21
59063;BME280;44851;45.648;9.004;2022-11-21T05:50:08;98329.78;;;3.10;62.87
59063;BME280;44851;45.648;9.004;2022-11-21T05:52:33;98330.88;;;2.94;63.41
59063;BME280;44851;45.648;9.004;2022-11-21T05:54:59;98341.59;;;2.88;62.95
59063;BME280;44851;45.648;9.004;2022-11-21T05:57:24;98340.38;;;2.81;63.74
59063;BME280;44851;45.648;9.004;2022-11-21T05:59:49;98335.41;;;2.91;63.19
59063;BME280;44851;45.648;9.004;2022-11-21T06:02:15;98336.59;;;2.98;63.15
59063;BME280;44851;45.648;9.004;2022-11-21T06:04:58;98339.53;;;2.93;62.34
59063;BME280;44851;45.648;9.004;2022-11-21T06:07:24;98339.13;;;2.87;62.58
59063;BME280;44851;45.648;9.004;2022-11-21T06:09:49;98340.16;;;2.84;63.27
59063;BME280;44851;45.648;9.004;2022-11-21T06:12:14;98344.91;;;2.78;63.33
59063;BME280;44851;45.648;9.004;2022-11-21T06:14:39;98349.22;;;2.90;64.33
59063;BME280;44851;45.648;9.004;2022-11-21T06:17:05;98336.59;;;3.11;62.97
59063;BME280;44851;45.648;9.004;2022-11-21T06:19:30;98336.97;;;2.93;63.36
59063;BME280;44851;45.648;9.004;2022-11-21T06:21:55;98334.38;;;2.93;62.91
59063;BME280;44851;45.648;9.004;2022-11-21T06:24:21;98333.38;;;2.83;63.08
59063;BME280;44851;45.648;9.004;2022-11-21T06:26:46;98338.03;;;2.78;63.40
59063;BME280;44851;45.648;9.004;2022-11-21T06:29:11;98341.63;;;2.75;63.63
59063;BME280;44851;45.648;9.004;2022-11-21T06:31:37;98336.50;;;2.63;64.25
59063;BME280;44851;45.648;9.004;2022-11-21T06:34:02;98334.22;;;2.71;63.73
59063;BME280;44851;45.648;9.004;2022-11-21T06:36:27;98333.19;;;2.61;63.73
59063;BME280;44851;45.648;9.004;2022-11-21T06:38:54;98327.84;;;2.64;63.82
59063;BME280;44851;45.648;9.004;2022-11-21T06:41:25;98325.78;;;2.69;63.52
59063;BME280;44851;45.648;9.004;2022-11-21T06:43:51;98327.50;;;2.81;62.93
59063;BME280;44851;45.648;9.004;2022-11-21T06:46:16;98325.53;;;2.85;63.52
59063;BME280;44851;45.648;9.004;2022-11-21T06:48:42;98334.41;;;2.81;63.24
59063;BME280;44851;45.648;9.004;2022-11-21T06:51:21;98343.44;;;2.86;61.61
59063;BME280;44851;45.648;9.004;2022-11-21T06:53:51;98346.09;;;2.97;63.22
59063;BME280;44851;45.648;9.004;2022-11-21T06:56:21;98335.19;;;2.94;63.22
59063;BME280;44851;45.648;9.004;2022-11-21T06:58:46;98337.44;;;2.98;63.30
59063;BME280;44851;45.648;9.004;2022-11-21T07:01:12;98336.66;;;2.85;63.88
59063;BME280;44851;45.648;9.004;2022-11-21T07:03:37;98331.69;;;2.95;63.14
59063;BME280;44851;45.648;9.004;2022-11-21T07:06:04;98331.31;;;2.88;63.20
59063;BME280;44851;45.648;9.004;2022-11-21T07:08:31;98328.44;;;2.80;64.07
59063;BME280;44851;45.648;9.004;2022-11-21T07:11:04;98332.44;;;2.84;63.67
59063;BME280;44851;45.648;9.004;2022-11-21T07:13:30;98330.06;;;2.94;63.94
59063;BME280;44851;45.648;9.004;2022-11-21T07:16:01;98330.63;;;2.97;63.88
59063;BME280;44851;45.648;9.004;2022-11-21T07:18:27;98341.75;;;2.98;63.63
59063;BME280;44851;45.648;9.004;2022-11-21T07:20:56;98334.53;;;3.03;63.89
59063;BME280;44851;45.648;9.004;2022-11-21T07:23:22;98336.44;;;2.88;63.79
59063;BME280;44851;45.648;9.004;2022-11-21T07:25:47;98348.38;;;2.89;64.18
59063;BME280;44851;45.648;9.004;2022-11-21T07:28:13;98345.88;;;3.00;64.40
59063;BME280;44851;45.648;9.004;2022-11-21T07:30:38;98355.34;;;3.00;64.31
59063;BME280;44851;45.648;9.004;2022-11-21T07:33:05;98351.84;;;3.01;63.53
59063;BME280;44851;45.648;9.004;2022-11-21T07:35:31;98351.28;;;2.85;64.08
59063;BME280;44851;45.648;9.004;2022-11-21T07:37:57;98354.31;;;3.02;64.15
59063;BME280;44851;45.648;9.004;2022-11-21T07:40:22;98352.47;;;3.05;64.00
59063;BME280;44851;45.648;9.004;2022-11-21T07:42:47;98356.69;;;3.06;64.60
59063;BME280;44851;45.648;9.004;2022-11-21T07:45:14;98366.34;;;3.02;64.33
59063;BME280;44851;45.648;9.004;2022-11-21T07:47:39;98356.19;;;3.00;64.79
59063;BME280;44851;45.648;9.004;2022-11-21T07:50:06;98349.94;;;3.16;64.76
59063;BME280;44851;45.648;9.004;2022-11-21T07:52:31;98360.88;;;3.07;64.04
59063;BME280;44851;45.648;9.004;2022-11-21T07:54:56;98373.06;;;3.05;65.13
59063;BME280;44851;45.648;9.004;2022-11-21T07:57:23;98364.41;;;3.06;65.21
59063;BME280;44851;45.648;9.004;2022-11-21T07:59:48;98354.09;;;3.06;65.37
59063;BME280;44851;45.648;9.004;2022-11-21T08:02:19;98343.25;;;3.13;65.27
59063;BME280;44851;45.648;9.004;2022-11-21T08:04:45;98348.31;;;3.15;65.08
59063;BME280;44851;45.648;9.004;2022-11-21T08:07:11;98344.09;;;3.38;64.99
59063;BME280;44851;45.648;9.004;2022-11-21T08:09:36;98342.44;;;3.37;65.16
59063;BME280;44851;45.648;9.004;2022-11-21T08:12:01;98329.47;;;3.38;64.98
59063;BME280;44851;45.648;9.004;2022-11-21T08:14:27;98334.03;;;3.59;64.98
59063;BME280;44851;45.648;9.004;2022-11-21T08:16:52;98330.31;;;3.74;64.17
59063;BME280;44851;45.648;9.004;2022-11-21T08:19:18;98325.69;;;3.90;65.15
59063;BME280;44851;45.648;9.004;2022-11-21T08:21:43;98329.59;;;4.18;64.08
59063;BME280;44851;45.648;9.004;2022-11-21T08:24:08;98322.00;;;4.39;63.29
59063;BME280;44851;45.648;9.004;2022-11-21T08:26:39;98323.63;;;4.63;63.20
59063;BME280;44851;45.648;9.004;2022-11-21T08:29:04;98315.41;;;4.80;62.45
59063;BME280;44851;45.648;9.004;2022-11-21T08:31:29;98307.72;;;4.90;63.19
59063;BME280;44851;45.648;9.004;2022-11-21T08:33:55;98302.00;;;4.97;63.19
59063;BME280;44851;45.648;9.004;2022-11-21T08:36:21;98297.81;;;5.49;63.10
59063;BME280;44851;45.648;9.004;2022-11-21T08:38:46;98299.41;;;5.82;63.26
59063;BME280;44851;45.648;9.004;2022-11-21T08:41:12;98289.88;;;6.25;62.36
59063;BME280;44851;45.648;9.004;2022-11-21T08:43:55;98286.47;;;6.64;62.16
59063;BME280;44851;45.648;9.004;2022-11-21T08:46:21;98287.38;;;7.13;61.15
59063;BME280;44851;45.648;9.004;2022-11-21T08:48:46;98302.94;;;7.33;58.13
59063;BME280;44851;45.648;9.004;2022-11-21T08:51:11;98298.03;;;7.68;60.36
59063;BME280;44851;45.648;9.004;2022-11-21T08:53:36;98303.78;;;7.62;56.30
59063;BME280;44851;45.648;9.004;2022-11-21T08:56:02;98297.59;;;7.92;54.66
59063;BME280;44851;45.648;9.004;2022-11-21T08:58:27;98299.03;;;8.24;53.41
59063;BME280;44851;45.648;9.004;2022-11-21T09:00:52;98292.06;;;8.52;56.36
59063;BME280;44851;45.648;9.004;2022-11-21T09:03:18;98291.72;;;8.74;55.78
59063;BME280;44851;45.648;9.004;2022-11-21T09:05:43;98287.44;;;9.01;54.69
59063;BME280;44851;45.648;9.004;2022-11-21T09:08:09;98281.50;;;8.91;53.05
59063;BME280;44851;45.648;9.004;2022-11-21T09:10:35;98281.34;;;9.10;53.48
59063;BME280;44851;45.648;9.004;2022-11-21T09:13:00;98278.25;;;9.24;53.92
59063;BME280;44851;45.648;9.004;2022-11-21T09:15:26;98269.84;;;9.13;50.83
59063;BME280;44851;45.648;9.004;2022-11-21T09:18:10;98273.97;;;9.33;51.50
59063;BME280;44851;45.648;9.004;2022-11-21T09:20:41;98275.38;;;9.45;50.15
59063;BME280;44851;45.648;9.004;2022-11-21T09:23:08;98274.97;;;9.58;50.08
59063;BME280;44851;45.648;9.004;2022-11-21T09:25:34;98278.16;;;9.96;52.06
59063;BME280;44851;45.648;9.004;2022-11-21T09:28:04;98287.56;;;10.15;51.06
59063;BME280;44851;45.648;9.004;2022-11-21T09:30:30;98289.63;;;10.03;49.16
59063;BME280;44851;45.648;9.004;2022-11-21T09:33:06;98296.00;;;10.43;48.01
59063;BME280;44851;45.648;9.004;2022-11-21T09:35:32;98294.44;;;10.50;49.24
59063;BME280;44851;45.648;9.004;2022-11-21T09:37:57;98291.50;;;10.45;49.92
59063;BME280;44851;45.648;9.004;2022-11-21T09:40:24;98284.47;;;10.71;48.99
59063;BME280;44851;45.648;9.004;2022-11-21T09:42:59;98284.22;;;10.65;48.06
59063;BME280;44851;45.648;9.004;2022-11-21T09:48:18;98280.88;;;10.80;47.63
59063;BME280;44851;45.648;9.004;2022-11-21T09:50:50;98277.06;;;11.17;48.14
59063;BME280;44851;45.648;9.004;2022-11-21T09:53:22;98272.19;;;11.22;46.29
59063;BME280;44851;45.648;9.004;2022-11-21T09:58:25;98278.22;;;11.80;45.68
59063;BME280;44851;45.648;9.004;2022-11-21T10:00:52;98268.25;;;11.91;45.09
59063;BME280;44851;45.648;9.004;2022-11-21T10:03:31;98263.69;;;11.85;45.51
59063;BME280;44851;45.648;9.004;2022-11-21T10:06:04;98270.53;;;12.03;46.10
59063;BME280;44851;45.648;9.004;2022-11-21T10:08:57;98266.09;;;12.28;45.00
59063;BME280;44851;45.648;9.004;2022-11-21T10:12:06;98261.16;;;12.33;45.51
59063;BME280;44851;45.648;9.004;2022-11-21T10:18:18;98244.75;;;12.55;43.55
59063;BME280;44851;45.648;9.004;2022-11-21T10:28:59;98218.72;;;12.93;43.69
59063;BME280;44851;45.648;9.004;2022-11-21T10:31:28;98224.63;;;13.10;41.37
59063;BME280;44851;45.648;9.004;2022-11-21T10:33:55;98221.00;;;13.19;42.31
59063;BME280;44851;45.648;9.004;2022-11-21T10:36:41;98228.13;;;13.33;40.76
59063;BME280;44851;45.648;9.004;2022-11-21T10:39:32;98226.44;;;13.09;38.21
59063;BME280;44851;45.648;9.004;2022-11-21T10:44:30;98212.25;;;13.50;40.50
59063;BME280;44851;45.648;9.004;2022-11-21T10:47:18;98223.66;;;13.57;40.18
59063;BME280;44851;45.648;9.004;2022-11-21T10:52:37;98220.25;;;13.71;40.19
59063;BME280;44851;45.648;9.004;2022-11-21T10:55:11;98221.44;;;13.83;40.93
59063;BME280;44851;45.648;9.004;2022-11-21T10:57:40;98230.28;;;13.82;39.41
59063;BME280;44851;45.648;9.004;2022-11-21T11:02:37;98199.38;;;13.25;39.88
59063;BME280;44851;45.648;9.004;2022-11-21T11:07:40;98189.22;;;13.45;40.52
59063;BME280;44851;45.648;9.004;2022-11-21T11:10:21;98192.44;;;13.70;39.66
59063;BME280;44851;45.648;9.004;2022-11-21T11:12:48;98192.72;;;13.75;39.91
59063;BME280;44851;45.648;9.004;2022-11-21T11:15:32;98176.72;;;13.70;39.98
59063;BME280;44851;45.648;9.004;2022-11-21T11:18:00;98171.09;;;13.43;41.45
59063;BME280;44851;45.648;9.004;2022-11-21T11:20:40;98158.00;;;13.43;39.45
59063;BME280;44851;45.648;9.004;2022-11-21T11:25:48;98135.16;;;13.37;39.94
59063;BME280;44851;45.648;9.004;2022-11-21T11:28:14;98128.28;;;13.36;43.12
59063;BME280;44851;45.648;9.004;2022-11-21T11:30:41;98134.38;;;13.14;42.33
59063;BME280;44851;45.648;9.004;2022-11-21T11:33:35;98124.31;;;13.40;39.33
59063;BME280;44851;45.648;9.004;2022-11-21T11:38:55;98102.41;;;13.56;42.38
59063;BME280;44851;45.648;9.004;2022-11-21T11:44:25;98086.25;;;13.38;40.28
59063;BME280;44851;45.648;9.004;2022-11-21T11:47:22;98092.56;;;13.43;41.86
59063;BME280;44851;45.648;9.004;2022-11-21T11:50:11;98090.91;;;13.13;38.41
59063;BME280;44851;45.648;9.004;2022-11-21T11:55:27;98068.81;;;13.30;38.37
59063;BME280;44851;45.648;9.004;2022-11-21T11:57:55;98067.47;;;13.34;38.77
59063;BME280;44851;45.648;9.004;2022-11-21T12:05:45;98050.81;;;13.86;37.85
59063;BME280;44851;45.648;9.004;2022-11-21T12:08:18;98046.81;;;13.90;35.24
59063;BME280;44851;45.648;9.004;2022-11-21T12:11:02;98044.31;;;13.82;34.98
59063;BME280;44851;45.648;9.004;2022-11-21T12:13:51;98042.31;;;13.84;36.55
59063;BME280;44851;45.648;9.004;2022-11-21T12:16:20;98031.03;;;13.84;35.89
59063;BME280;44851;45.648;9.004;2022-11-21T12:19:02;98033.59;;;13.77;36.09
59063;BME280;44851;45.648;9.004;2022-11-21T12:21:31;98022.75;;;13.80;35.41
59063;BME280;44851;45.648;9.004;2022-11-21T12:23:57;98012.88;;;13.82;35.68
59063;BME280;44851;45.648;9.004;2022-11-21T12:29:34;98022.69;;;13.59;40.04
59063;BME280;44851;45.648;9.004;2022-11-21T12:43:23;97988.34;;;12.94;38.83
59063;BME280;44851;45.648;9.004;2022-11-21T12:46:23;97983.31;;;12.93;39.77
59063;BME280;44851;45.648;9.004;2022-11-21T12:49:19;97980.78;;;13.00;39.40
59063;BME280;44851;45.648;9.004;2022-11-21T12:52:30;97980.94;;;12.83;38.95
59063;BME280;44851;45.648;9.004;2022-11-21T12:55:49;97976.53;;;12.69;38.81
59063;BME280;44851;45.648;9.004;2022-11-21T13:03:37;97972.19;;;12.61;41.94
59063;BME280;44851;45.648;9.004;2022-11-21T13:06:05;97968.03;;;12.52;41.86
59063;BME280;44851;45.648;9.004;2022-11-21T13:08:34;97973.84;;;12.39;40.90
59063;BME280;44851;45.648;9.004;2022-11-21T13:16:35;97949.22;;;12.34;43.60
59063;BME280;44851;45.648;9.004;2022-11-21T13:19:15;97954.16;;;12.29;42.67
59063;BME280;44851;45.648;9.004;2022-11-21T13:21:46;97952.59;;;12.20;41.96
59063;BME280;44851;45.648;9.004;2022-11-21T13:27:29;97930.50;;;12.07;44.32
59063;BME280;44851;45.648;9.004;2022-11-21T13:32:39;97916.59;;;12.15;38.39
59063;BME280;44851;45.648;9.004;2022-11-21T13:38:06;97904.75;;;12.04;43.40
59063;BME280;44851;45.648;9.004;2022-11-21T13:45:49;97897.34;;;12.08;44.05
59063;BME280;44851;45.648;9.004;2022-11-21T13:51:15;97899.53;;;11.96;43.87
59063;BME280;44851;45.648;9.004;2022-11-21T13:59:33;97895.44;;;12.02;42.50
59063;BME280;44851;45.648;9.004;2022-11-21T14:07:31;97886.66;;;12.17;44.31
59063;BME280;44851;45.648;9.004;2022-11-21T14:09:59;97891.84;;;12.03;45.06
59063;BME280;44851;45.648;9.004;2022-11-21T14:12:31;97893.19;;;11.99;46.00
59063;BME280;44851;45.648;9.004;2022-11-21T14:19:53;97886.09;;;11.84;47.29
59063;BME280;44851;45.648;9.004;2022-11-21T14:22:26;97880.06;;;11.84;48.69
59063;BME280;44851;45.648;9.004;2022-11-21T14:24:54;97879.25;;;11.83;48.18
59063;BME280;44851;45.648;9.004;2022-11-21T14:27:26;97869.63;;;11.84;49.19
59063;BME280;44851;45.648;9.004;2022-11-21T14:29:53;97871.88;;;11.64;49.08
59063;BME280;44851;45.648;9.004;2022-11-21T14:32:25;97867.66;;;11.63;47.20
59063;BME280;44851;45.648;9.004;2022-11-21T14:34:51;97870.38;;;11.47;45.95
59063;BME280;44851;45.648;9.004;2022-11-21T14:37:16;97865.16;;;11.47;46.58
59063;BME280;44851;45.648;9.004;2022-11-21T14:39:42;97868.22;;;11.50;48.10
59063;BME280;44851;45.648;9.004;2022-11-21T14:42:13;97871.69;;;11.43;46.98
59063;BME280;44851;45.648;9.004;2022-11-21T14:44:39;97871.28;;;11.54;46.93
59063;BME280;44851;45.648;9.004;2022-11-21T14:47:23;97866.47;;;11.43;46.40
59063;BME280;44851;45.648;9.004;2022-11-21T14:49:50;97864.34;;;11.46;46.79
59063;BME280;44851;45.648;9.004;2022-11-21T14:52:18;97861.97;;;11.28;46.06
59063;BME280;44851;45.648;9.004;2022-11-21T14:54:57;97853.59;;;11.41;49.46
59063;BME280;44851;45.648;9.004;2022-11-21T14:57:26;97855.16;;;11.27;49.14
59063;BME280;44851;45.648;9.004;2022-11-21T14:59:54;97849.31;;;11.25;48.89
59063;BME280;44851;45.648;9.004;2022-11-21T15:02:23;97842.91;;;11.28;48.98
59063;BME280;44851;45.648;9.004;2022-11-21T15:04:50;97839.19;;;11.22;49.79
59063;BME280;44851;45.648;9.004;2022-11-21T15:07:25;97837.91;;;11.18;49.80
59063;BME280;44851;45.648;9.004;2022-11-21T15:09:51;97830.78;;;11.12;48.84